Terminal Aerodrome Forecast
Issued by NWS Jackson, MS

Home | Current Version | Previous Version | Text Only | Print | Product List | Glossary On
Versions: 1 2 3 4 5 6 7 8 9 10 11 12 13 14 15 16 17 18 19
883
FTUS44 KMEG 302053 AAB
TAFTUP
TAF AMD
KTUP 302053Z 3021/3118 35005KT P6SM BKN060
     FM310300 04003KT P6SM VCSH SCT050
     FM311200 03003KT P6SM SCT050=

USA.gov is the U.S. government's official web portal to all federal, state and local government web resources and services.